createdAt,value
2018-07-13T00:02:16.189Z,7.73
2018-07-13T00:04:49.109Z,7.13
2018-07-13T00:07:20.548Z,6.60
2018-07-13T00:09:53.148Z,7.33
2018-07-13T00:12:25.250Z,7.33
2018-07-13T00:15:13.428Z,7.50
2018-07-13T00:17:45.248Z,7.53
2018-07-13T00:20:16.808Z,6.77
2018-07-13T00:22:48.928Z,6.47
2018-07-13T00:25:20.848Z,7.10
2018-07-13T00:27:52.988Z,7.43
2018-07-13T00:30:25.648Z,7.00
2018-07-13T00:32:57.268Z,7.10
2018-07-13T00:35:28.968Z,7.20
2018-07-13T00:38:01.109Z,7.30
2018-07-13T00:40:33.368Z,7.67
2018-07-13T00:43:05.388Z,6.97
2018-07-13T00:45:37.328Z,7.10
2018-07-13T00:48:07.508Z,7.03
2018-07-13T00:50:39.190Z,6.93
2018-07-13T00:53:11.408Z,9.20
2018-07-13T00:55:44.748Z,7.27
2018-07-13T00:58:16.089Z,7.17
2018-07-13T01:00:48.356Z,6.70
2018-07-13T01:03:19.849Z,6.87
2018-07-13T01:05:52.509Z,6.77
2018-07-13T01:08:24.809Z,6.37
2018-07-13T01:10:57.109Z,6.10
2018-07-13T01:13:29.708Z,6.67
2018-07-13T01:16:01.452Z,6.80
2018-07-13T01:18:33.429Z,7.07
2018-07-13T01:21:06.148Z,7.10
2018-07-13T01:23:37.808Z,6.50
2018-07-13T01:26:10.027Z,8.10
2018-07-13T01:28:41.448Z,6.83
2018-07-13T01:31:12.971Z,6.40
2018-07-13T01:33:45.029Z,6.30
2018-07-13T01:36:17.948Z,7.00
2018-07-13T01:38:49.888Z,6.63
2018-07-13T01:41:22.308Z,6.33
2018-07-13T01:43:55.047Z,7.17
2018-07-13T01:46:27.188Z,6.93
2018-07-13T01:48:59.027Z,6.13
2018-07-13T01:51:31.028Z,6.33
2018-07-13T01:54:03.028Z,6.30
2018-07-13T01:56:35.248Z,6.00
2018-07-13T01:59:06.888Z,6.80
2018-07-13T02:01:39.028Z,6.87
2018-07-13T02:04:11.269Z,6.43
2018-07-13T02:06:43.048Z,6.37
2018-07-13T02:09:14.867Z,6.30
2018-07-13T02:11:47.027Z,6.30
2018-07-13T02:14:18.228Z,6.30
2018-07-13T02:16:50.507Z,6.93
2018-07-13T02:19:22.628Z,6.90
2018-07-13T02:21:54.708Z,6.07
2018-07-13T02:24:26.348Z,5.70
2018-07-13T02:26:58.287Z,6.37
2018-07-13T02:29:30.728Z,6.57
2018-07-13T02:32:02.528Z,6.30
2018-07-13T02:34:34.009Z,6.73
2018-07-13T02:37:05.888Z,6.40
2018-07-13T02:39:37.888Z,7.10
2018-07-13T02:42:09.490Z,6.83
2018-07-13T02:44:40.790Z,5.70
2018-07-13T02:47:12.228Z,6.63
2018-07-13T02:49:44.008Z,7.40
2018-07-13T02:52:15.450Z,6.43
2018-07-13T02:54:47.689Z,7.67
2018-07-13T02:57:19.609Z,6.30
2018-07-13T02:59:51.632Z,6.53
2018-07-13T03:02:23.508Z,6.90
2018-07-13T03:04:55.908Z,6.80
2018-07-13T03:07:28.030Z,7.13
2018-07-13T03:10:00.350Z,7.03
2018-07-13T03:12:32.813Z,6.90
2018-07-13T03:15:04.809Z,6.60
2018-07-13T03:17:36.890Z,6.27
2018-07-13T03:20:08.848Z,6.90
2018-07-13T03:22:41.428Z,6.90
2018-07-13T03:25:13.608Z,6.73
2018-07-13T03:27:45.549Z,7.13
2018-07-13T03:30:17.589Z,6.47
2018-07-13T03:32:49.968Z,7.27
2018-07-13T03:35:22.068Z,6.80
2018-07-13T03:37:54.608Z,6.77
2018-07-13T03:40:26.289Z,7.10
2018-07-13T03:42:58.568Z,7.20
2018-07-13T03:45:30.608Z,6.73
2018-07-13T03:48:02.709Z,7.17
2018-07-13T03:50:35.248Z,7.67
2018-07-13T03:53:07.748Z,7.23
2018-07-13T03:55:39.989Z,7.10
2018-07-13T03:58:12.348Z,7.43
2018-07-13T04:00:43.890Z,7.20
2018-07-13T04:03:15.888Z,6.70
2018-07-13T04:05:47.829Z,7.73
2018-07-13T04:08:19.988Z,7.43
2018-07-13T04:10:51.709Z,7.43
2018-07-13T04:13:23.990Z,7.30
2018-07-13T04:15:56.568Z,7.43
2018-07-13T04:18:28.308Z,7.53
2018-07-13T04:21:00.568Z,7.60
2018-07-13T04:23:33.049Z,7.23
2018-07-13T04:26:04.728Z,10.63
2018-07-13T04:28:37.194Z,7.30
2018-07-13T04:31:07.708Z,7.20
2018-07-13T04:33:39.048Z,8.40
2018-07-13T04:36:10.909Z,7.17
2018-07-13T04:38:41.948Z,8.50
2018-07-13T04:41:15.108Z,7.47
2018-07-13T04:43:47.748Z,6.90
2018-07-13T04:46:19.488Z,7.67
2018-07-13T04:48:51.907Z,7.90
2018-07-13T04:51:23.532Z,8.30
2018-07-13T04:53:55.891Z,13.00
2018-07-13T04:56:28.889Z,7.40
2018-07-13T04:59:00.368Z,7.60
2018-07-13T05:01:32.548Z,10.00
2018-07-13T05:04:04.288Z,7.80
2018-07-13T05:06:37.248Z,7.57
2018-07-13T05:09:10.368Z,6.80
2018-07-13T05:11:42.288Z,8.27
2018-07-13T05:14:14.231Z,7.00
2018-07-13T05:16:46.928Z,8.30
2018-07-13T05:19:18.228Z,7.47
2018-07-13T05:21:51.187Z,6.57
2018-07-13T05:24:23.147Z,7.00
2018-07-13T05:26:56.068Z,6.63
2018-07-13T05:29:27.668Z,10.93
2018-07-13T05:31:59.728Z,7.23
2018-07-13T05:34:31.748Z,6.30
2018-07-13T05:37:03.689Z,6.77
2018-07-13T05:39:35.588Z,7.70
2018-07-13T05:42:07.408Z,8.37
2018-07-13T05:44:40.148Z,7.23
2018-07-13T05:47:12.809Z,7.17
2018-07-13T05:49:44.701Z,6.60
2018-07-13T05:52:17.028Z,7.80
2018-07-13T05:54:49.288Z,7.60
2018-07-13T05:57:21.229Z,7.13
2018-07-13T05:59:52.956Z,7.80
2018-07-13T06:02:25.136Z,8.63
2018-07-13T06:04:57.109Z,8.93
2018-07-13T06:07:29.608Z,8.27
2018-07-13T06:10:01.473Z,9.03
2018-07-13T06:12:34.049Z,9.27
2018-07-13T06:15:06.611Z,8.43
2018-07-13T06:17:38.990Z,9.20
2018-07-13T06:20:12.189Z,8.70
2018-07-13T06:22:44.309Z,9.30
2018-07-13T06:25:16.529Z,9.30
2018-07-13T06:27:48.429Z,8.60
2018-07-13T06:30:21.201Z,8.83
2018-07-13T06:32:52.970Z,10.47
2018-07-13T06:35:25.293Z,8.37
2018-07-13T06:37:57.549Z,8.80
2018-07-13T06:40:30.310Z,7.40
2018-07-13T06:43:02.157Z,8.60
2018-07-13T06:45:37.329Z,7.87
2018-07-13T06:48:07.589Z,8.23
2018-07-13T06:50:39.871Z,8.20
2018-07-13T06:53:12.989Z,7.60
2018-07-13T06:55:45.069Z,7.60
2018-07-13T06:59:21.157Z,7.43
2018-07-13T07:01:53.468Z,7.00
2018-07-13T07:04:34.168Z,7.23
2018-07-13T07:07:07.669Z,7.10
2018-07-13T07:09:39.612Z,7.23
2018-07-13T07:13:31.923Z,7.47
2018-07-13T07:16:03.465Z,7.40
2018-07-13T07:18:36.824Z,8.63
2018-07-13T07:21:09.645Z,6.70
2018-07-13T07:23:41.579Z,6.40
2018-07-13T07:26:14.037Z,6.90
2018-07-13T07:28:46.877Z,6.93
2018-07-13T07:31:18.316Z,6.73
2018-07-13T07:33:49.816Z,6.50
2018-07-13T07:36:22.084Z,6.60
2018-07-13T07:38:54.138Z,7.97
2018-07-13T07:41:26.176Z,9.00
2018-07-13T07:43:58.102Z,7.13
2018-07-13T07:46:29.656Z,6.97
2018-07-13T07:49:01.096Z,6.60
2018-07-13T07:51:33.451Z,7.57
2018-07-13T07:54:05.572Z,7.37
2018-07-13T07:56:38.491Z,7.10
2018-07-13T07:59:10.152Z,7.07
2018-07-13T08:01:43.635Z,7.60
2018-07-13T08:04:15.526Z,7.07
2018-07-13T08:06:48.083Z,7.60
2018-07-13T08:09:20.026Z,7.37
2018-07-13T08:11:52.482Z,6.90
2018-07-13T08:14:24.429Z,7.63
2018-07-13T08:16:57.076Z,7.40
2018-07-13T08:19:29.985Z,7.00
2018-07-13T08:22:04.654Z,7.70
2018-07-13T08:24:37.451Z,6.40
2018-07-13T08:27:09.272Z,6.90
2018-07-13T08:29:43.510Z,7.13
2018-07-13T08:32:15.571Z,7.27
2018-07-13T08:34:48.072Z,6.93
2018-07-13T08:37:19.590Z,7.70
2018-07-13T08:39:51.990Z,7.27
2018-07-13T08:42:23.629Z,7.67
2018-07-13T08:44:55.571Z,7.53
2018-07-13T08:47:27.017Z,8.17
2018-07-13T08:49:58.567Z,6.90
2018-07-13T08:52:30.407Z,7.37
2018-07-13T08:55:07.387Z,7.60
2018-07-13T08:57:40.549Z,8.27
2018-07-13T09:00:12.828Z,7.80
2018-07-13T09:02:44.628Z,7.60
2018-07-13T09:05:15.848Z,7.70
2018-07-13T09:07:47.828Z,8.20
2018-07-13T09:10:20.202Z,8.70
2018-07-13T09:12:51.851Z,8.30
2018-07-13T09:15:23.701Z,9.27
2018-07-13T09:17:55.568Z,8.70
2018-07-13T09:20:27.796Z,8.80
2018-07-13T09:23:00.555Z,7.93
2018-07-13T09:25:31.977Z,9.17
2018-07-13T09:28:04.413Z,9.27
2018-07-13T09:30:35.674Z,9.00
2018-07-13T09:33:08.434Z,9.90
2018-07-13T09:35:40.134Z,11.00
2018-07-13T09:38:11.814Z,9.73
2018-07-13T09:40:43.663Z,10.37
2018-07-13T09:43:15.862Z,9.57
2018-07-13T09:45:47.742Z,10.40
2018-07-13T09:48:19.683Z,8.87
2018-07-13T09:50:51.042Z,9.60
2018-07-13T09:53:23.883Z,8.47
2018-07-13T09:55:55.686Z,9.37
2018-07-13T09:58:38.973Z,10.77
2018-07-13T10:01:15.366Z,9.50
2018-07-13T10:03:47.527Z,9.57
2018-07-13T10:06:19.286Z,9.30
2018-07-13T10:08:51.170Z,8.20
2018-07-13T10:11:23.097Z,8.77
2018-07-13T10:13:55.037Z,8.77
2018-07-13T10:16:26.956Z,8.40
2018-07-13T10:18:58.616Z,8.80
2018-07-13T10:21:31.712Z,9.17
2018-07-13T10:24:04.280Z,9.67
2018-07-13T10:26:37.520Z,9.50
2018-07-13T10:29:15.046Z,10.57
2018-07-13T10:31:47.042Z,8.83
2018-07-13T10:34:20.721Z,9.40
2018-07-13T10:36:55.923Z,9.80
2018-07-13T10:39:26.675Z,9.83
2018-07-13T10:41:58.625Z,8.73
2018-07-13T10:44:30.551Z,9.40
2018-07-13T10:47:02.381Z,8.97
2018-07-13T10:49:33.964Z,8.70
2018-07-13T10:52:05.881Z,8.80
2018-07-13T10:54:37.842Z,9.50
2018-07-13T10:57:09.748Z,8.07
2018-07-13T10:59:41.967Z,8.40
2018-07-13T11:02:13.885Z,8.63
2018-07-13T11:04:45.581Z,9.47
2018-07-13T11:07:17.316Z,8.87
2018-07-13T11:09:48.739Z,9.80
2018-07-13T11:12:20.358Z,8.50
2018-07-13T11:14:52.240Z,7.97
2018-07-13T11:17:24.493Z,7.70
2018-07-13T11:19:56.295Z,8.10
2018-07-13T11:22:28.209Z,7.67
2018-07-13T11:25:00.670Z,7.80
2018-07-13T11:27:31.962Z,8.00
2018-07-13T11:30:03.642Z,7.10
2018-07-13T11:32:36.186Z,7.10
2018-07-13T11:35:08.046Z,7.53
2018-07-13T11:37:39.687Z,6.43
2018-07-13T11:40:12.285Z,7.30
2018-07-13T11:42:43.725Z,6.87
2018-07-13T11:45:14.986Z,6.27
2018-07-13T11:47:47.305Z,6.63
2018-07-13T11:50:19.531Z,7.10
2018-07-13T11:52:51.301Z,6.97
2018-07-13T11:55:23.992Z,7.70
2018-07-13T11:57:55.218Z,6.60
2018-07-13T12:00:26.795Z,7.30
2018-07-13T12:02:58.609Z,6.80
2018-07-13T12:05:30.729Z,6.47
2018-07-13T12:08:02.029Z,7.20
2018-07-13T12:10:33.589Z,6.60
2018-07-13T12:13:05.270Z,7.10
2018-07-13T12:15:37.369Z,6.70
2018-07-13T12:18:07.789Z,8.47
2018-07-13T12:20:39.951Z,6.83
2018-07-13T12:23:11.741Z,7.10
2018-07-13T12:25:43.365Z,6.93
2018-07-13T12:28:15.084Z,7.23
2018-07-13T12:30:46.681Z,7.40
2018-07-13T12:33:18.771Z,7.10
2018-07-13T12:35:51.204Z,6.70
2018-07-13T12:38:22.961Z,7.80
2018-07-13T12:40:55.060Z,6.83
2018-07-13T12:43:26.897Z,7.10
2018-07-13T12:45:59.735Z,6.97
2018-07-13T12:48:31.199Z,7.20
2018-07-13T12:51:03.536Z,7.00
2018-07-13T12:53:36.036Z,7.70
2018-07-13T12:56:08.095Z,7.50
2018-07-13T12:58:41.656Z,6.50
2018-07-13T13:01:14.556Z,7.30
2018-07-13T13:03:46.472Z,8.10
2018-07-13T13:06:18.756Z,7.20
2018-07-13T13:08:50.996Z,7.70
2018-07-13T13:11:22.357Z,6.77
2018-07-13T13:13:55.277Z,6.80
2018-07-13T13:16:26.777Z,5.47
2018-07-13T13:18:58.756Z,6.67
2018-07-13T13:21:30.918Z,6.20
2018-07-13T13:24:03.436Z,5.30
2018-07-13T13:26:35.559Z,6.90
2018-07-13T13:29:07.047Z,7.93
2018-07-13T13:31:39.396Z,6.00
2018-07-13T13:34:11.655Z,6.20
2018-07-13T13:36:44.955Z,6.43
2018-07-13T13:39:17.456Z,5.27
2018-07-13T13:41:49.375Z,4.97
2018-07-13T13:44:21.276Z,4.50
2018-07-13T13:46:52.495Z,5.70
2018-07-13T13:49:24.637Z,5.17
2018-07-13T13:51:57.469Z,5.47
2018-07-13T13:54:30.489Z,5.20
2018-07-13T13:57:02.110Z,4.70
2018-07-13T13:59:33.829Z,4.73
2018-07-13T14:02:05.590Z,4.53
2018-07-13T14:04:38.602Z,5.87
2018-07-13T14:07:10.560Z,5.17
2018-07-13T14:09:42.579Z,3.90
2018-07-13T14:12:14.221Z,3.30
2018-07-13T14:14:45.803Z,3.50
2018-07-13T14:17:17.423Z,4.60
2018-07-13T14:19:50.459Z,4.47
2018-07-13T14:22:22.999Z,4.23
2018-07-13T14:24:54.643Z,4.30
2018-07-13T14:27:27.060Z,4.40
2018-07-13T14:29:59.556Z,3.97
2018-07-13T14:32:31.436Z,4.50
2018-07-13T14:35:03.169Z,5.00
2018-07-13T14:37:35.346Z,6.53
2018-07-13T14:40:06.530Z,3.90
2018-07-13T14:42:38.946Z,3.93
2018-07-13T14:45:09.533Z,4.20
2018-07-13T14:47:41.554Z,5.13
2018-07-13T14:50:13.173Z,5.30
2018-07-13T14:52:44.953Z,4.07
2018-07-13T14:55:17.473Z,4.93
2018-07-13T14:57:49.593Z,4.60
2018-07-13T15:00:21.273Z,4.20
2018-07-13T15:02:53.934Z,4.30
2018-07-13T15:05:25.503Z,4.10
2018-07-13T15:07:56.537Z,3.90
2018-07-13T15:10:28.746Z,3.17
2018-07-13T15:13:02.012Z,3.63
2018-07-13T15:15:34.111Z,3.67
2018-07-13T15:18:05.841Z,3.60
2018-07-13T15:20:37.732Z,4.67
2018-07-13T15:23:09.971Z,2.80
2018-07-13T15:25:42.092Z,3.10
2018-07-13T15:28:12.692Z,5.83
2018-07-13T15:30:44.593Z,3.13
2018-07-13T15:33:16.651Z,3.87
2018-07-13T15:35:48.612Z,3.03
2018-07-13T15:38:21.011Z,5.50
2018-07-13T15:40:53.111Z,5.33
2018-07-13T15:43:25.198Z,3.40
2018-07-13T15:45:57.274Z,3.13
2018-07-13T15:48:29.652Z,3.03
2018-07-13T15:51:02.132Z,2.90
2018-07-13T15:53:33.870Z,3.37
2018-07-13T15:56:06.531Z,3.63
2018-07-13T15:58:38.370Z,3.60
2018-07-13T16:01:14.078Z,4.10
2018-07-13T16:03:46.272Z,3.80
2018-07-13T16:06:17.651Z,4.80
2018-07-13T16:08:49.345Z,4.60
2018-07-13T16:11:21.088Z,5.23
2018-07-13T16:13:52.283Z,3.50
2018-07-13T16:16:23.869Z,4.00
2018-07-13T16:18:55.594Z,5.20
2018-07-13T16:21:28.047Z,4.00
2018-07-13T16:23:59.346Z,4.13
2018-07-13T16:26:29.770Z,4.63
2018-07-13T16:29:01.407Z,4.17
2018-07-13T16:31:33.547Z,3.63
2018-07-13T16:34:05.220Z,4.00
2018-07-13T16:36:36.467Z,4.10
2018-07-13T16:39:09.407Z,4.07
2018-07-13T16:41:41.273Z,8.20
2018-07-13T16:44:13.587Z,6.83
2018-07-13T16:46:45.807Z,4.27
2018-07-13T16:49:17.687Z,4.43
2018-07-13T16:51:49.895Z,4.33
2018-07-13T16:54:21.587Z,5.40
2018-07-13T16:56:53.007Z,5.20
2018-07-13T16:59:26.127Z,5.30
2018-07-13T17:01:57.668Z,5.93
2018-07-13T17:04:29.827Z,5.00
2018-07-13T17:07:02.410Z,4.23
2018-07-13T17:09:33.988Z,5.00
2018-07-13T17:12:06.909Z,4.00
2018-07-13T17:14:38.868Z,4.60
2018-07-13T17:17:10.695Z,5.10
2018-07-13T17:19:43.908Z,4.53
2018-07-13T17:22:15.291Z,5.23
2018-07-13T17:24:47.788Z,4.90
2018-07-13T17:27:19.928Z,4.27
2018-07-13T17:29:51.897Z,5.13
2018-07-13T17:32:23.511Z,5.50
2018-07-13T17:34:56.467Z,5.23
2018-07-13T17:37:27.747Z,5.93
2018-07-13T17:40:00.008Z,6.20
2018-07-13T17:42:31.880Z,4.93
2018-07-13T17:45:03.674Z,6.30
2018-07-13T17:47:35.588Z,5.53
2018-07-13T17:50:07.828Z,5.90
2018-07-13T17:52:40.051Z,5.30
2018-07-13T17:55:12.467Z,5.37
2018-07-13T17:57:43.968Z,6.53
2018-07-13T18:00:16.007Z,5.73
2018-07-13T18:02:48.687Z,5.43
2018-07-13T18:05:21.847Z,6.20
2018-07-13T18:07:53.447Z,4.80
2018-07-13T18:10:25.567Z,4.47
2018-07-13T18:12:57.033Z,5.60
2018-07-13T18:15:29.427Z,6.80
2018-07-13T18:18:00.748Z,5.37
2018-07-13T18:20:33.109Z,5.10
2018-07-13T18:23:05.564Z,6.90
2018-07-13T18:25:37.367Z,5.67
2018-07-13T18:28:10.307Z,4.93
2018-07-13T18:30:41.871Z,5.90
2018-07-13T18:33:13.788Z,6.03
2018-07-13T18:35:45.747Z,5.80
2018-07-13T18:38:18.390Z,5.67
2018-07-13T18:40:50.068Z,4.77
2018-07-13T18:43:22.465Z,4.90
2018-07-13T18:45:54.931Z,5.30
2018-07-13T18:48:26.587Z,25.40
2018-07-13T18:50:59.586Z,6.40
2018-07-13T18:53:31.247Z,5.97
2018-07-13T18:56:03.988Z,5.00
2018-07-13T18:58:35.246Z,5.03
2018-07-13T19:01:07.667Z,5.03
2018-07-13T19:03:39.451Z,4.67
2018-07-13T19:06:11.506Z,4.90
2018-07-13T19:08:43.347Z,5.17
2018-07-13T19:11:15.546Z,5.10
2018-07-13T19:13:48.366Z,5.60
2018-07-13T19:16:19.667Z,5.40
2018-07-13T19:18:51.288Z,5.13
2018-07-13T19:21:23.027Z,4.80
2018-07-13T19:23:54.667Z,4.73
2018-07-13T19:26:26.834Z,5.17
2018-07-13T19:28:58.708Z,5.23
2018-07-13T19:31:31.747Z,5.53
2018-07-13T19:34:03.607Z,4.57
2018-07-13T19:36:35.428Z,4.83
2018-07-13T19:39:07.708Z,4.60
2018-07-13T19:41:40.088Z,6.83
2018-07-13T19:44:12.907Z,5.60
2018-07-13T19:46:44.691Z,5.67
2018-07-13T19:49:16.871Z,6.00
2018-07-13T19:51:48.607Z,5.27
2018-07-13T19:54:21.447Z,5.40
2018-07-13T19:56:53.267Z,5.63
2018-07-13T19:59:25.367Z,4.50
2018-07-13T20:01:57.208Z,5.20
2018-07-13T20:04:29.288Z,5.27
2018-07-13T20:07:02.272Z,4.70
2018-07-13T20:09:33.747Z,4.73
2018-07-13T20:12:05.969Z,4.90
2018-07-13T20:14:37.748Z,5.90
2018-07-13T20:17:09.399Z,5.00
2018-07-13T20:19:40.688Z,6.47
2018-07-13T20:22:12.947Z,8.37
2018-07-13T20:24:44.747Z,7.80
2018-07-13T20:27:17.588Z,6.30
2018-07-13T20:29:49.127Z,5.57
2018-07-13T20:32:20.947Z,5.10
2018-07-13T20:34:53.406Z,4.70
2018-07-13T20:37:25.209Z,5.17
2018-07-13T20:39:58.287Z,5.67
2018-07-13T20:42:29.208Z,5.30
2018-07-13T20:45:01.779Z,7.33
2018-07-13T20:47:34.221Z,5.13
2018-07-13T20:50:05.906Z,4.67
2018-07-13T20:52:38.236Z,5.20
2018-07-13T20:55:09.766Z,5.07
2018-07-13T20:57:41.906Z,4.90
2018-07-13T21:00:13.627Z,4.60
2018-07-13T21:02:46.261Z,5.40
2018-07-13T21:05:19.827Z,7.30
2018-07-13T21:07:52.071Z,5.90
2018-07-13T21:10:23.947Z,5.50
2018-07-13T21:12:55.247Z,6.10
2018-07-13T21:15:27.247Z,6.17
2018-07-13T21:17:58.726Z,6.60
2018-07-13T21:20:31.207Z,5.70
2018-07-13T21:23:02.606Z,6.10
2018-07-13T21:25:34.691Z,6.30
2018-07-13T21:28:06.227Z,5.93
2018-07-13T21:30:39.146Z,5.37
2018-07-13T21:33:10.606Z,6.13
2018-07-13T21:35:43.071Z,6.20
2018-07-13T21:38:14.308Z,5.83
2018-07-13T21:40:46.348Z,6.23
2018-07-13T21:43:17.807Z,5.40
2018-07-13T21:45:49.806Z,5.50
2018-07-13T21:48:21.866Z,6.63
2018-07-13T21:50:54.707Z,6.37
2018-07-13T21:53:26.446Z,7.27
2018-07-13T21:55:59.207Z,8.60
2018-07-13T21:58:30.808Z,6.60
2018-07-13T22:01:02.728Z,7.37
2018-07-13T22:03:34.687Z,6.07
2018-07-13T22:06:07.006Z,6.30
2018-07-13T22:08:39.327Z,6.10
2018-07-13T22:11:11.227Z,6.40
2018-07-13T22:13:43.027Z,6.97
2018-07-13T22:16:15.049Z,6.00
2018-07-13T22:18:47.088Z,6.03
2018-07-13T22:21:18.955Z,6.17
2018-07-13T22:23:51.369Z,6.03
2018-07-13T22:26:24.350Z,6.60
2018-07-13T22:28:56.067Z,6.03
2018-07-13T22:31:28.626Z,5.80
2018-07-13T22:34:00.467Z,5.97
2018-07-13T22:36:32.307Z,8.27
2018-07-13T22:39:04.347Z,6.63
2018-07-13T22:41:36.187Z,5.53
2018-07-13T22:44:07.087Z,5.90
2018-07-13T22:46:39.788Z,7.07
2018-07-13T22:49:12.107Z,7.00
2018-07-13T22:51:44.987Z,7.77
2018-07-13T22:54:16.166Z,8.80
2018-07-13T22:56:48.407Z,7.60
2018-07-13T22:59:19.588Z,6.57
2018-07-13T23:01:51.710Z,5.87
2018-07-13T23:04:22.967Z,6.40
2018-07-13T23:06:55.827Z,7.07
2018-07-13T23:09:28.387Z,6.20
2018-07-13T23:12:00.887Z,7.20
2018-07-13T23:14:32.627Z,6.90
2018-07-13T23:17:04.047Z,7.20
2018-07-13T23:19:36.387Z,6.47
2018-07-13T23:22:08.447Z,6.63
2018-07-13T23:24:40.787Z,7.07
2018-07-13T23:27:12.827Z,7.10
2018-07-13T23:29:45.047Z,7.20
2018-07-13T23:32:18.007Z,6.33
2018-07-13T23:34:50.088Z,6.60
2018-07-13T23:37:20.867Z,7.67
2018-07-13T23:39:52.588Z,7.30
2018-07-13T23:42:25.167Z,6.50
2018-07-13T23:44:56.547Z,6.97
2018-07-13T23:47:28.706Z,7.60
2018-07-13T23:50:01.170Z,7.03
2018-07-13T23:52:33.266Z,6.97
2018-07-13T23:55:05.207Z,6.67
2018-07-13T23:57:37.186Z,6.83
